createdAt,value
2022-10-23T00:00:43.823Z,65.09
2022-10-23T00:01:43.777Z,64.33
2022-10-23T00:02:44.294Z,65.53
2022-10-23T00:03:43.706Z,64.93
2022-10-23T00:04:43.689Z,64.64
2022-10-23T00:05:44.689Z,67.42
2022-10-23T00:06:43.678Z,55.59
2022-10-23T00:07:43.639Z,61.37
2022-10-23T00:08:43.609Z,59.14
2022-10-23T00:09:43.649Z,60.77
2022-10-23T00:10:43.596Z,61.90
2022-10-23T00:11:43.550Z,61.71
2022-10-23T00:12:44.509Z,63.64
2022-10-23T00:13:43.526Z,60.69
2022-10-23T00:14:43.489Z,64.64
2022-10-23T00:15:43.541Z,61.60
2022-10-23T00:16:43.462Z,61.92
2022-10-23T00:17:43.747Z,64.56
2022-10-23T00:18:43.402Z,66.19
2022-10-23T00:19:43.387Z,62.57
2022-10-23T00:20:43.398Z,61.34
2022-10-23T00:21:43.338Z,62.31
2022-10-23T00:22:45.082Z,65.57
2022-10-23T00:23:43.293Z,65.83
2022-10-23T00:24:43.285Z,66.37
2022-10-23T00:25:43.315Z,57.39
2022-10-23T00:26:43.237Z,55.90
2022-10-23T00:27:43.467Z,64.00
2022-10-23T00:28:43.204Z,66.00
2022-10-23T00:29:43.209Z,63.38
2022-10-23T00:30:43.185Z,64.05
2022-10-23T00:31:43.157Z,60.19
2022-10-23T00:32:43.119Z,62.63
2022-10-23T00:33:43.164Z,64.66
2022-10-23T00:34:43.089Z,62.11
2022-10-23T00:35:43.056Z,63.66
2022-10-23T00:36:43.056Z,62.13
2022-10-23T00:37:43.311Z,61.13
2022-10-23T00:38:43.014Z,59.07
2022-10-23T00:39:42.971Z,65.07
2022-10-23T00:40:43.037Z,65.61
2022-10-23T00:41:42.969Z,64.50
2022-10-23T00:42:43.206Z,63.61
2022-10-23T00:43:42.907Z,65.24
2022-10-23T00:44:42.891Z,64.63
2022-10-23T00:45:43.935Z,59.05
2022-10-23T00:46:42.838Z,61.41
2022-10-23T00:47:42.835Z,57.24
2022-10-23T00:48:42.807Z,64.32
2022-10-23T00:49:42.926Z,58.53
2022-10-23T00:50:42.778Z,60.92
2022-10-23T00:51:43.735Z,62.59
2022-10-23T00:52:42.862Z,61.43
2022-10-23T00:53:43.708Z,64.00
2022-10-23T00:54:42.689Z,61.54
2022-10-23T00:55:42.685Z,62.30
2022-10-23T00:56:42.646Z,65.33
2022-10-23T00:57:42.617Z,66.43
2022-10-23T00:58:42.609Z,65.97
2022-10-23T00:59:42.581Z,65.32
2022-10-23T01:00:42.773Z,61.22
2022-10-23T01:01:42.637Z,61.98
2022-10-23T01:02:42.826Z,58.65
2022-10-23T01:03:42.619Z,60.36
2022-10-23T01:04:42.479Z,54.85
2022-10-23T01:05:42.540Z,60.38
2022-10-23T01:06:42.447Z,59.21
2022-10-23T01:07:42.677Z,62.89
2022-10-23T01:08:42.526Z,63.80
2022-10-23T01:09:42.379Z,62.82
2022-10-23T01:10:42.405Z,65.25
2022-10-23T01:11:42.355Z,62.41
2022-10-23T01:12:42.322Z,55.97
2022-10-23T01:13:42.367Z,57.68
2022-10-23T01:14:42.294Z,60.79
2022-10-23T01:15:42.308Z,59.60
2022-10-23T01:16:42.278Z,63.32
2022-10-23T01:17:44.492Z,61.34
2022-10-23T01:18:43.222Z,65.86
2022-10-23T01:19:42.204Z,62.01
2022-10-23T01:20:42.217Z,61.96
2022-10-23T01:21:42.157Z,67.09
2022-10-23T01:22:42.284Z,62.28
2022-10-23T01:23:42.117Z,61.01
2022-10-23T01:24:42.095Z,62.56
2022-10-23T01:25:42.108Z,57.89
2022-10-23T01:26:42.057Z,59.72
2022-10-23T01:27:42.056Z,59.37
2022-10-23T01:28:42.022Z,55.14
2022-10-23T01:29:42.002Z,51.38
2022-10-23T01:31:42.989Z,61.81
2022-10-23T01:32:42.266Z,60.27
2022-10-23T01:33:41.944Z,59.98
2022-10-23T01:34:41.899Z,62.93
2022-10-23T01:35:41.874Z,58.58
2022-10-23T01:36:41.864Z,62.90
2022-10-23T01:37:41.837Z,58.47
2022-10-23T01:38:41.845Z,61.22
2022-10-23T01:39:41.815Z,55.05
2022-10-23T01:40:41.803Z,57.93
2022-10-23T01:41:42.763Z,65.03
2022-10-23T01:42:42.020Z,56.95
2022-10-23T01:43:41.711Z,64.14
2022-10-23T01:44:41.734Z,66.31
2022-10-23T01:45:41.701Z,61.06
2022-10-23T01:46:41.663Z,60.82
2022-10-23T01:47:41.927Z,52.37
2022-10-23T01:48:41.614Z,56.84
2022-10-23T01:49:41.596Z,59.85
2022-10-23T01:50:41.615Z,58.57
2022-10-23T01:51:41.553Z,62.02
2022-10-23T01:52:41.552Z,65.09
2022-10-23T01:53:41.517Z,64.84
2022-10-23T01:54:41.548Z,60.88
2022-10-23T01:56:41.470Z,57.51
2022-10-23T01:57:41.688Z,58.69
2022-10-23T01:58:41.416Z,61.63
2022-10-23T01:59:41.403Z,64.83
2022-10-23T02:00:41.400Z,64.73
2022-10-23T02:01:41.466Z,59.52
2022-10-23T02:02:41.338Z,55.24
2022-10-23T02:03:41.317Z,61.77
2022-10-23T02:04:41.297Z,60.95
2022-10-23T02:05:41.312Z,58.57
2022-10-23T02:06:41.268Z,54.23
2022-10-23T02:07:41.478Z,55.54
2022-10-23T02:08:41.212Z,58.29
2022-10-23T02:09:41.210Z,62.70
2022-10-23T02:10:41.198Z,60.08
2022-10-23T02:11:41.168Z,59.04
2022-10-23T02:12:41.137Z,63.27
2022-10-23T02:13:41.119Z,64.63
2022-10-23T02:14:41.091Z,55.42
2022-10-23T02:15:41.098Z,55.53
2022-10-23T02:16:41.067Z,63.21
2022-10-23T02:17:41.268Z,59.80
2022-10-23T02:18:41.007Z,63.00
2022-10-23T02:19:40.983Z,61.21
2022-10-23T02:20:41.032Z,63.38
2022-10-23T02:21:40.946Z,64.70
2022-10-23T02:22:41.219Z,58.39
2022-10-23T02:23:40.909Z,63.13
2022-10-23T02:24:40.890Z,59.06
2022-10-23T02:25:40.898Z,65.41
2022-10-23T02:26:40.849Z,58.20
2022-10-23T02:27:40.839Z,61.74
2022-10-23T02:28:40.807Z,64.66
2022-10-23T02:29:40.794Z,63.24
2022-10-23T02:30:40.808Z,59.86
2022-10-23T02:31:40.763Z,63.67
2022-10-23T02:32:41.012Z,62.33
2022-10-23T02:33:40.718Z,63.50
2022-10-23T02:34:40.718Z,64.59
2022-10-23T02:35:40.707Z,66.18
2022-10-23T02:36:40.650Z,64.01
2022-10-23T02:37:40.901Z,62.18
2022-10-23T02:38:40.637Z,63.12
2022-10-23T02:39:40.607Z,61.36
2022-10-23T02:40:40.600Z,65.78
2022-10-23T02:41:40.554Z,61.64
2022-10-23T02:42:40.529Z,58.74
2022-10-23T02:43:40.508Z,62.30
2022-10-23T02:44:40.489Z,67.85
2022-10-23T02:46:40.455Z,58.92
2022-10-23T02:47:40.655Z,65.04
2022-10-23T02:48:40.419Z,63.43
2022-10-23T02:49:40.405Z,64.04
2022-10-23T02:50:40.397Z,58.01
2022-10-23T02:51:40.354Z,64.77
2022-10-23T02:52:40.357Z,61.79
2022-10-23T02:53:40.342Z,63.06
2022-10-23T02:54:40.296Z,63.27
2022-10-23T02:55:40.299Z,60.86
2022-10-23T02:56:40.258Z,65.48
2022-10-23T02:57:40.391Z,59.57
2022-10-23T02:58:40.223Z,64.20
2022-10-23T02:59:40.195Z,60.04
2022-10-23T03:00:40.210Z,63.21
2022-10-23T03:01:40.273Z,65.41
2022-10-23T03:02:40.143Z,66.52
2022-10-23T03:03:40.120Z,60.99
2022-10-23T03:04:41.066Z,62.77
2022-10-23T03:05:40.105Z,61.92
2022-10-23T03:06:40.073Z,59.93
2022-10-23T03:07:40.268Z,54.60
2022-10-23T03:08:40.028Z,60.13
2022-10-23T03:09:40.010Z,63.21
2022-10-23T03:10:41.050Z,65.63
2022-10-23T03:11:39.961Z,64.59
2022-10-23T03:12:40.250Z,60.46
2022-10-23T03:13:39.928Z,57.87
2022-10-23T03:14:39.909Z,67.42
2022-10-23T03:15:39.909Z,61.83
2022-10-23T03:16:39.872Z,63.17
2022-10-23T03:17:39.855Z,61.93
2022-10-23T03:18:39.822Z,56.76
2022-10-23T03:19:39.813Z,62.67
2022-10-23T03:20:39.828Z,61.56
2022-10-23T03:21:39.760Z,63.34
2022-10-23T03:22:40.022Z,62.38
2022-10-23T03:23:39.723Z,60.91
2022-10-23T03:24:39.707Z,64.89
2022-10-23T03:25:39.718Z,65.32
2022-10-23T03:26:39.667Z,63.49
2022-10-23T03:27:39.661Z,68.75
2022-10-23T03:28:39.632Z,64.71
2022-10-23T03:29:39.613Z,64.22
2022-10-23T03:30:39.619Z,63.67
2022-10-23T03:31:39.570Z,65.17
2022-10-23T03:32:39.698Z,67.05
2022-10-23T03:33:39.550Z,65.26
2022-10-23T03:34:39.512Z,61.24
2022-10-23T03:35:39.548Z,59.87
2022-10-23T03:36:39.468Z,60.44
2022-10-23T03:37:39.697Z,60.66
2022-10-23T03:38:39.434Z,67.44
2022-10-23T03:39:39.415Z,64.63
2022-10-23T03:40:39.424Z,62.48
2022-10-23T03:41:39.378Z,60.79
2022-10-23T03:42:39.355Z,65.40
2022-10-23T03:43:39.344Z,67.50
2022-10-23T03:44:39.318Z,67.48
2022-10-23T03:45:39.329Z,59.15
2022-10-23T03:46:39.286Z,60.72
2022-10-23T03:47:39.337Z,66.01
2022-10-23T03:48:39.245Z,63.16
2022-10-23T03:49:39.224Z,60.43
2022-10-23T03:50:39.229Z,59.62
2022-10-23T03:51:39.185Z,60.30
2022-10-23T03:52:39.411Z,58.70
2022-10-23T03:53:39.156Z,62.11
2022-10-23T03:54:39.155Z,62.75
2022-10-23T03:55:39.129Z,63.59
2022-10-23T03:56:39.089Z,63.24
2022-10-23T03:57:39.058Z,64.05
2022-10-23T03:58:39.041Z,62.98
2022-10-23T03:59:39.020Z,62.44
2022-10-23T04:00:39.097Z,60.00
2022-10-23T04:01:39.033Z,63.92
2022-10-23T04:02:39.023Z,62.16
2022-10-23T04:03:38.960Z,61.44
2022-10-23T04:04:38.988Z,64.00
2022-10-23T04:05:38.925Z,68.88
2022-10-23T04:06:38.906Z,64.69
2022-10-23T04:07:38.868Z,66.77
2022-10-23T04:08:38.845Z,65.41
2022-10-23T04:09:38.823Z,63.69
2022-10-23T04:10:38.840Z,65.91
2022-10-23T04:11:38.810Z,60.56
2022-10-23T04:12:39.886Z,60.13
2022-10-23T04:13:38.746Z,61.93
2022-10-23T04:14:38.747Z,65.25
2022-10-23T04:15:38.736Z,64.16
2022-10-23T04:16:38.711Z,66.75
2022-10-23T04:17:38.666Z,62.99
2022-10-23T04:18:38.646Z,67.47
2022-10-23T04:19:38.634Z,61.38
2022-10-23T04:20:38.632Z,66.09
2022-10-23T04:21:38.595Z,63.95
2022-10-23T04:22:38.564Z,65.83
2022-10-23T04:23:38.572Z,64.25
2022-10-23T04:24:38.529Z,64.03
2022-10-23T04:25:38.597Z,68.26
2022-10-23T04:26:38.485Z,65.20
2022-10-23T04:27:38.495Z,65.76
2022-10-23T04:28:38.448Z,60.03
2022-10-23T04:29:38.442Z,62.76
2022-10-23T04:30:38.443Z,64.85
2022-10-23T04:31:38.383Z,66.41
2022-10-23T04:32:38.367Z,66.89
2022-10-23T04:33:38.344Z,63.33
2022-10-23T04:34:38.331Z,64.79
2022-10-23T04:35:38.339Z,65.81
2022-10-23T04:36:38.338Z,67.74
2022-10-23T04:37:38.270Z,66.80
2022-10-23T04:38:38.252Z,65.92
2022-10-23T04:39:38.234Z,68.22
2022-10-23T04:40:38.250Z,67.38
2022-10-23T04:41:38.186Z,66.45
2022-10-23T04:42:38.189Z,63.49
2022-10-23T04:43:38.187Z,63.42
2022-10-23T04:44:38.130Z,66.06
2022-10-23T04:45:38.166Z,67.89
2022-10-23T04:46:38.093Z,66.43
2022-10-23T04:47:38.069Z,64.35
2022-10-23T04:48:38.046Z,66.12
2022-10-23T04:49:38.034Z,67.66
2022-10-23T04:50:38.064Z,64.95
2022-10-23T04:51:37.988Z,70.80
2022-10-23T04:52:37.975Z,66.15
2022-10-23T04:53:37.948Z,67.81
2022-10-23T04:54:37.966Z,61.20
2022-10-23T04:55:37.957Z,69.54
2022-10-23T04:56:37.931Z,71.58
2022-10-23T04:57:37.867Z,66.22
2022-10-23T04:58:37.861Z,65.77
2022-10-23T04:59:37.847Z,67.03
2022-10-23T05:00:37.897Z,66.11
2022-10-23T05:01:37.906Z,66.31
2022-10-23T05:02:37.766Z,65.52
2022-10-23T05:03:37.746Z,65.81
2022-10-23T05:04:37.726Z,66.26
2022-10-23T05:05:37.728Z,65.31
2022-10-23T05:06:37.692Z,67.33
2022-10-23T05:07:37.661Z,62.74
2022-10-23T05:08:37.645Z,62.55
2022-10-23T05:09:37.623Z,64.80
2022-10-23T05:10:37.634Z,64.39
2022-10-23T05:11:37.586Z,64.70
2022-10-23T05:12:37.571Z,65.86
2022-10-23T05:13:37.552Z,66.42
2022-10-23T05:14:37.530Z,65.05
2022-10-23T05:15:37.590Z,65.61
2022-10-23T05:16:37.490Z,64.55
2022-10-23T05:17:37.467Z,68.31
2022-10-23T05:18:37.449Z,65.52
2022-10-23T05:19:37.432Z,64.90
2022-10-23T05:20:37.430Z,66.06
2022-10-23T05:21:37.388Z,68.96
2022-10-23T05:22:37.372Z,66.05
2022-10-23T05:23:37.343Z,63.72
2022-10-23T05:24:37.321Z,69.28
2022-10-23T05:25:37.331Z,64.37
2022-10-23T05:26:37.285Z,64.03
2022-10-23T05:27:37.362Z,69.28
2022-10-23T05:28:37.259Z,64.50
2022-10-23T05:29:37.225Z,63.06
2022-10-23T05:30:37.232Z,66.10
2022-10-23T05:31:37.196Z,60.70
2022-10-23T05:32:37.163Z,67.04
2022-10-23T05:33:37.151Z,61.11
2022-10-23T05:34:37.120Z,69.74
2022-10-23T05:35:37.128Z,64.54
2022-10-23T05:36:37.082Z,67.05
2022-10-23T05:37:37.062Z,66.75
2022-10-23T05:38:37.056Z,66.45
2022-10-23T05:39:37.034Z,66.31
2022-10-23T05:40:37.039Z,64.93
2022-10-23T05:41:36.984Z,64.26
2022-10-23T05:42:39.505Z,68.57
2022-10-23T05:43:36.959Z,65.31
2022-10-23T05:44:36.922Z,67.23
2022-10-23T05:45:36.895Z,66.87
2022-10-23T05:46:36.901Z,67.58
2022-10-23T05:47:36.856Z,67.27
2022-10-23T05:48:36.840Z,70.66
2022-10-23T05:49:36.815Z,69.05
2022-10-23T05:50:36.800Z,67.96
2022-10-23T05:51:36.807Z,67.23
2022-10-23T05:52:36.758Z,66.58
2022-10-23T05:53:38.906Z,68.63
2022-10-23T05:54:37.721Z,67.55
2022-10-23T05:55:36.700Z,70.11
2022-10-23T05:56:36.703Z,70.41
2022-10-23T05:57:36.658Z,70.56
2022-10-23T05:58:36.638Z,70.42
2022-10-23T05:59:36.620Z,66.34
2022-10-23T06:00:36.599Z,69.68
2022-10-23T06:01:36.815Z,60.74
2022-10-23T06:02:36.644Z,71.94
2022-10-23T06:03:36.540Z,70.41
2022-10-23T06:04:36.520Z,68.06
2022-10-23T06:05:36.536Z,67.22
2022-10-23T06:06:36.508Z,66.44
2022-10-23T06:07:36.464Z,70.37
2022-10-23T06:08:36.446Z,69.65
2022-10-23T06:09:36.432Z,68.46
2022-10-23T06:10:36.403Z,68.61
2022-10-23T06:11:36.407Z,69.54
2022-10-23T06:12:36.361Z,67.86
2022-10-23T06:13:36.351Z,68.66
2022-10-23T06:14:36.331Z,69.63
2022-10-23T06:15:36.303Z,68.37
2022-10-23T06:16:36.307Z,69.61
2022-10-23T06:17:36.250Z,69.52
2022-10-23T06:18:37.238Z,66.71
2022-10-23T06:19:36.339Z,70.01
2022-10-23T06:20:36.197Z,68.89
2022-10-23T06:21:36.210Z,70.53
2022-10-23T06:22:36.160Z,65.34
2022-10-23T06:23:36.139Z,69.16
2022-10-23T06:24:36.119Z,70.41
2022-10-23T06:25:36.095Z,69.21
2022-10-23T06:26:36.108Z,68.53
2022-10-23T06:27:36.057Z,69.68
2022-10-23T06:28:36.031Z,70.43
2022-10-23T06:29:36.018Z,70.19
2022-10-23T06:30:36.012Z,72.43
2022-10-23T06:31:36.018Z,69.32
2022-10-23T06:32:35.953Z,71.78
2022-10-23T06:33:35.933Z,68.47
2022-10-23T06:34:35.913Z,66.76
2022-10-23T06:35:35.903Z,70.54
2022-10-23T06:36:35.898Z,67.09
2022-10-23T06:37:35.855Z,68.27
2022-10-23T06:38:35.830Z,70.71
2022-10-23T06:39:35.816Z,71.06
2022-10-23T06:40:35.789Z,70.97
2022-10-23T06:41:35.791Z,70.46
2022-10-23T06:42:35.746Z,66.88
2022-10-23T06:43:35.728Z,68.11
2022-10-23T06:44:35.703Z,69.64
2022-10-23T06:45:35.686Z,67.69
2022-10-23T06:46:35.689Z,69.94
2022-10-23T06:47:35.647Z,71.24
2022-10-23T06:48:35.622Z,67.49
2022-10-23T06:49:35.597Z,70.03
2022-10-23T06:50:35.581Z,71.46
2022-10-23T06:51:35.583Z,71.16
2022-10-23T06:52:46.527Z,68.61
2022-10-23T06:53:37.517Z,67.81
2022-10-23T06:54:35.492Z,71.70
2022-10-23T06:55:35.477Z,67.79
2022-10-23T06:56:35.476Z,70.13
2022-10-23T06:57:35.430Z,70.26
2022-10-23T06:58:35.407Z,71.30
2022-10-23T06:59:35.386Z,70.14
2022-10-23T07:00:35.413Z,71.59
2022-10-23T07:01:35.615Z,71.04
2022-10-23T07:02:35.315Z,71.20
2022-10-23T07:03:35.295Z,70.97
2022-10-23T07:04:35.268Z,68.12
2022-10-23T07:05:35.246Z,70.32
2022-10-23T07:06:35.258Z,71.07
2022-10-23T07:07:35.209Z,70.12
2022-10-23T07:08:35.192Z,69.53
2022-10-23T07:09:35.165Z,68.55
2022-10-23T07:10:35.145Z,70.91
2022-10-23T07:11:35.151Z,68.84
2022-10-23T07:12:35.100Z,69.20
2022-10-23T07:13:35.083Z,70.26
2022-10-23T07:14:35.058Z,69.63
2022-10-23T07:15:35.039Z,71.59
2022-10-23T07:16:35.042Z,68.40
2022-10-23T07:17:34.997Z,69.79
2022-10-23T07:19:35.948Z,69.25
2022-10-23T07:20:34.924Z,69.76
2022-10-23T07:21:34.929Z,69.70
2022-10-23T07:22:34.882Z,71.03
2022-10-23T07:23:34.857Z,71.25
2022-10-23T07:24:34.836Z,68.77
2022-10-23T07:25:34.810Z,69.24
2022-10-23T07:26:34.817Z,69.29
2022-10-23T07:27:34.767Z,69.58
2022-10-23T07:28:34.750Z,70.96
2022-10-23T07:29:34.728Z,68.60
2022-10-23T07:30:34.720Z,69.83
2022-10-23T07:31:34.713Z,69.26
2022-10-23T07:32:34.668Z,71.54
2022-10-23T07:33:34.650Z,70.62
2022-10-23T07:34:34.635Z,70.52
2022-10-23T07:35:37.217Z,70.02
2022-10-23T07:36:34.616Z,69.60
2022-10-23T07:37:34.569Z,70.95
2022-10-23T07:38:34.550Z,70.81
2022-10-23T07:39:34.537Z,69.63
2022-10-23T07:40:34.517Z,70.61
2022-10-23T07:41:34.529Z,69.75
2022-10-23T07:42:34.508Z,69.12
2022-10-23T07:43:34.464Z,71.14
2022-10-23T07:44:34.438Z,68.67
2022-10-23T07:45:35.250Z,70.32
2022-10-23T07:46:34.403Z,70.28
2022-10-23T07:47:34.409Z,70.52
2022-10-23T07:48:34.362Z,69.36
2022-10-23T07:49:34.341Z,70.01
2022-10-23T07:50:34.328Z,68.86
2022-10-23T07:51:34.332Z,69.91
2022-10-23T07:52:35.941Z,68.89
2022-10-23T07:53:34.273Z,70.71
2022-10-23T07:54:34.245Z,68.96
2022-10-23T07:55:34.228Z,69.62
2022-10-23T07:56:34.239Z,68.14
2022-10-23T07:57:34.195Z,68.19
2022-10-23T07:58:34.174Z,70.50
2022-10-23T07:59:37.161Z,68.62
2022-10-23T08:00:35.136Z,69.04
2022-10-23T08:01:34.244Z,69.91
2022-10-23T08:02:34.165Z,69.19
2022-10-23T08:03:34.088Z,68.95
2022-10-23T08:04:34.064Z,70.02
2022-10-23T08:05:34.044Z,68.28
2022-10-23T08:06:34.064Z,70.00
2022-10-23T08:07:34.002Z,70.33
2022-10-23T08:08:34.055Z,68.76
2022-10-23T08:09:33.968Z,68.95
2022-10-23T08:10:33.951Z,72.63
2022-10-23T08:11:33.958Z,71.70
2022-10-23T08:12:33.918Z,69.66
2022-10-23T08:13:33.899Z,69.43
2022-10-23T08:14:33.879Z,72.54
2022-10-23T08:15:33.862Z,69.74
2022-10-23T08:16:33.873Z,70.97
2022-10-23T08:17:33.820Z,70.88
2022-10-23T08:18:33.807Z,68.33
2022-10-23T08:19:33.788Z,71.07
2022-10-23T08:20:33.768Z,69.50
2022-10-23T08:21:33.778Z,68.38
2022-10-23T08:22:33.722Z,68.53
2022-10-23T08:23:33.709Z,69.09
2022-10-23T08:24:33.696Z,70.04
2022-10-23T08:25:33.679Z,70.78
2022-10-23T08:26:33.679Z,71.27
2022-10-23T08:27:33.635Z,70.43
2022-10-23T08:28:33.615Z,71.19
2022-10-23T08:29:33.596Z,71.37
2022-10-23T08:30:33.580Z,70.58
2022-10-23T08:31:33.588Z,70.81
2022-10-23T08:32:33.557Z,69.42
2022-10-23T08:33:33.536Z,72.08
2022-10-23T08:34:33.502Z,70.24
2022-10-23T08:35:33.483Z,69.81
2022-10-23T08:36:33.500Z,70.69
2022-10-23T08:37:33.446Z,71.15
2022-10-23T08:38:33.426Z,71.85
2022-10-23T08:39:35.124Z,70.45
2022-10-23T08:40:33.433Z,69.57
2022-10-23T08:41:33.409Z,73.07
2022-10-23T08:42:33.373Z,71.42
2022-10-23T08:43:33.352Z,72.00
2022-10-23T08:44:33.326Z,71.16
2022-10-23T08:45:33.291Z,72.23
2022-10-23T08:46:34.315Z,71.27
2022-10-23T08:47:33.265Z,70.84
2022-10-23T08:48:33.258Z,69.80
2022-10-23T08:49:33.233Z,71.08
2022-10-23T08:50:33.212Z,71.88
2022-10-23T08:51:33.220Z,72.02
2022-10-23T08:52:33.171Z,72.05
2022-10-23T08:53:33.160Z,69.64
2022-10-23T08:54:33.156Z,70.08
2022-10-23T08:55:33.120Z,72.75
2022-10-23T08:56:33.127Z,72.95
2022-10-23T08:57:33.096Z,70.95
2022-10-23T08:58:33.059Z,72.27
2022-10-23T08:59:33.054Z,71.50
2022-10-23T09:00:33.055Z,72.90
2022-10-23T09:01:33.144Z,70.25
2022-10-23T09:02:32.987Z,70.73
2022-10-23T09:03:32.974Z,71.86
2022-10-23T09:04:32.950Z,70.68
2022-10-23T09:05:32.933Z,71.85
2022-10-23T09:06:32.939Z,72.38
2022-10-23T09:07:32.907Z,71.95
2022-10-23T09:08:32.879Z,71.17
2022-10-23T09:09:32.862Z,72.72
2022-10-23T09:10:32.842Z,71.88
2022-10-23T09:11:32.851Z,72.44
2022-10-23T09:12:32.822Z,72.64
2022-10-23T09:13:32.785Z,72.48
2022-10-23T09:14:32.771Z,71.31
2022-10-23T09:15:32.749Z,71.62
2022-10-23T09:16:32.771Z,71.51
2022-10-23T09:17:32.710Z,71.33
2022-10-23T09:18:32.689Z,71.99
2022-10-23T09:19:32.666Z,71.03
2022-10-23T09:20:32.670Z,71.52
2022-10-23T09:21:32.668Z,72.26
2022-10-23T09:22:32.615Z,70.92
2022-10-23T09:23:32.597Z,70.54
2022-10-23T09:24:32.595Z,73.28
2022-10-23T09:25:32.559Z,71.37
2022-10-23T09:26:32.566Z,70.83
2022-10-23T09:27:32.530Z,72.70
2022-10-23T09:28:32.495Z,71.52
2022-10-23T09:29:32.549Z,73.11
2022-10-23T09:30:32.463Z,69.25
2022-10-23T09:31:32.462Z,71.87
2022-10-23T09:32:32.430Z,73.61
2022-10-23T09:33:32.413Z,73.20
2022-10-23T09:34:32.384Z,70.76
2022-10-23T09:35:32.372Z,71.91
2022-10-23T09:36:32.371Z,72.33
2022-10-23T09:37:32.323Z,72.88
2022-10-23T09:38:33.328Z,72.60
2022-10-23T09:39:32.289Z,71.56
2022-10-23T09:40:32.267Z,72.44
2022-10-23T09:41:32.322Z,72.85
2022-10-23T09:42:32.237Z,72.80
2022-10-23T09:43:32.208Z,72.91
2022-10-23T09:44:32.226Z,71.59
2022-10-23T09:45:32.229Z,71.79
2022-10-23T09:46:32.183Z,70.16
2022-10-23T09:47:32.130Z,72.66
2022-10-23T09:48:32.144Z,72.33
2022-10-23T09:49:32.100Z,70.93
2022-10-23T09:50:32.080Z,73.02
2022-10-23T09:51:32.096Z,72.28
2022-10-23T09:52:32.037Z,70.72
2022-10-23T09:53:32.071Z,71.67
2022-10-23T09:54:32.009Z,72.09
2022-10-23T09:55:31.980Z,72.18
2022-10-23T09:56:31.988Z,73.04
2022-10-23T09:57:31.954Z,72.45
2022-10-23T09:58:31.926Z,70.87
2022-10-23T09:59:31.914Z,72.27
2022-10-23T10:00:31.883Z,72.68
2022-10-23T10:01:32.033Z,73.72
2022-10-23T10:02:31.841Z,69.98
2022-10-23T10:03:31.833Z,70.82
2022-10-23T10:04:31.802Z,72.11
2022-10-23T10:05:32.787Z,71.70
2022-10-23T10:06:31.833Z,71.40
2022-10-23T10:07:34.676Z,71.91
2022-10-23T10:08:31.750Z,72.43
2022-10-23T10:09:31.725Z,71.36
2022-10-23T10:10:31.706Z,71.98
2022-10-23T10:11:31.708Z,72.24
2022-10-23T10:12:31.656Z,72.48
2022-10-23T10:13:31.649Z,70.95
2022-10-23T10:14:31.626Z,71.42
2022-10-23T10:15:31.622Z,70.87
2022-10-23T10:16:31.688Z,71.42
2022-10-23T10:17:31.559Z,72.71
2022-10-23T10:18:31.567Z,71.76
2022-10-23T10:19:31.530Z,71.26
2022-10-23T10:20:31.511Z,72.92
2022-10-23T10:21:31.521Z,71.00
2022-10-23T10:22:31.463Z,71.30
2022-10-23T10:23:31.466Z,71.13
2022-10-23T10:24:31.449Z,72.24
2022-10-23T10:25:31.445Z,70.68
2022-10-23T10:26:31.411Z,72.26
2022-10-23T10:27:31.437Z,71.84
2022-10-23T10:28:31.361Z,71.80
2022-10-23T10:29:31.345Z,71.43
2022-10-23T10:30:31.339Z,70.24
2022-10-23T10:31:31.322Z,71.18
2022-10-23T10:32:31.281Z,71.35
2022-10-23T10:33:31.255Z,71.40
2022-10-23T10:34:31.245Z,70.99
2022-10-23T10:35:31.237Z,71.88
2022-10-23T10:36:31.233Z,71.49
2022-10-23T10:37:31.186Z,71.50
2022-10-23T10:38:31.174Z,71.70
2022-10-23T10:39:31.204Z,72.41
2022-10-23T10:40:31.125Z,71.89
2022-10-23T10:41:31.148Z,72.34
2022-10-23T10:42:31.090Z,71.28
2022-10-23T10:43:31.069Z,72.37
2022-10-23T10:44:31.078Z,72.84
2022-10-23T10:45:31.036Z,72.76
2022-10-23T10:46:31.041Z,73.61
2022-10-23T10:47:31.003Z,72.88
2022-10-23T10:48:30.993Z,72.77
2022-10-23T10:49:30.959Z,72.69
2022-10-23T10:50:30.940Z,72.88
2022-10-23T10:51:30.951Z,73.02
2022-10-23T10:52:30.902Z,72.01
2022-10-23T10:53:30.884Z,73.91
2022-10-23T10:54:30.874Z,72.61
2022-10-23T10:55:30.849Z,73.34
2022-10-23T10:56:30.855Z,72.75
2022-10-23T10:57:30.844Z,72.73
2022-10-23T10:58:30.784Z,72.69
2022-10-23T10:59:31.354Z,72.94
2022-10-23T11:00:30.757Z,72.70
2022-10-23T11:01:30.871Z,71.68
2022-10-23T11:02:30.743Z,72.51
2022-10-23T11:03:30.690Z,72.38
2022-10-23T11:04:30.683Z,70.78
2022-10-23T11:05:30.656Z,70.75
2022-10-23T11:06:30.660Z,72.11
2022-10-23T11:07:30.625Z,70.62
2022-10-23T11:08:31.496Z,71.94
2022-10-23T11:09:30.587Z,72.51
2022-10-23T11:10:30.557Z,71.26
2022-10-23T11:11:30.566Z,70.21
2022-10-23T11:12:30.533Z,71.57
2022-10-23T11:13:30.505Z,71.50
2022-10-23T11:14:30.502Z,72.09
2022-10-23T11:15:30.466Z,71.47
2022-10-23T11:16:30.476Z,73.01
2022-10-23T11:17:30.424Z,71.94
2022-10-23T11:18:30.441Z,72.15
2022-10-23T11:19:30.440Z,72.50
2022-10-23T11:20:30.376Z,72.99
2022-10-23T11:21:30.355Z,72.93
2022-10-23T11:22:30.331Z,72.08
2022-10-23T11:23:30.339Z,71.49
2022-10-23T11:24:30.292Z,73.48
2022-10-23T11:25:30.357Z,73.13
2022-10-23T11:26:30.289Z,73.75
2022-10-23T11:27:30.237Z,73.31
2022-10-23T11:28:30.215Z,73.41
2022-10-23T11:29:30.200Z,72.88
2022-10-23T11:30:30.186Z,72.75
2022-10-23T11:31:30.184Z,73.01
2022-10-23T11:32:30.161Z,73.52
2022-10-23T11:33:30.121Z,73.74
2022-10-23T11:34:30.106Z,74.27
2022-10-23T11:35:30.086Z,73.14
2022-10-23T11:36:30.092Z,74.36
2022-10-23T11:37:30.048Z,73.53
2022-10-23T11:38:30.034Z,72.57
2022-10-23T11:39:30.036Z,73.41
2022-10-23T11:40:29.987Z,72.85
2022-10-23T11:41:29.966Z,73.29
2022-10-23T11:42:29.943Z,73.61
2022-10-23T11:43:29.924Z,73.78
2022-10-23T11:44:29.940Z,74.02
2022-10-23T11:45:29.891Z,73.42
2022-10-23T11:46:29.901Z,73.68
2022-10-23T11:47:29.853Z,73.89
2022-10-23T11:48:29.837Z,72.83
2022-10-23T11:49:29.818Z,73.82
2022-10-23T11:50:29.801Z,72.36
2022-10-23T11:51:29.809Z,73.45
2022-10-23T11:52:29.757Z,73.15
2022-10-23T11:53:29.733Z,73.68
2022-10-23T11:54:29.712Z,73.46
2022-10-23T11:55:29.697Z,72.50
2022-10-23T11:56:29.722Z,73.22
2022-10-23T11:58:29.658Z,72.79
2022-10-23T11:59:29.641Z,72.47
2022-10-23T12:00:29.596Z,72.49
2022-10-23T12:01:29.683Z,73.56
2022-10-23T12:02:29.674Z,73.14
2022-10-23T12:03:29.539Z,72.49
2022-10-23T12:04:29.526Z,73.93
2022-10-23T12:05:29.535Z,72.20
2022-10-23T12:06:29.514Z,73.26
2022-10-23T12:07:29.452Z,72.68
2022-10-23T12:08:29.439Z,73.46
2022-10-23T12:09:29.409Z,72.27
2022-10-23T12:10:29.391Z,72.30
2022-10-23T12:11:29.400Z,70.65
2022-10-23T12:12:30.356Z,72.90
2022-10-23T12:13:29.352Z,72.04
2022-10-23T12:14:29.310Z,71.76
2022-10-23T12:15:29.300Z,71.73
2022-10-23T12:16:29.302Z,73.05
2022-10-23T12:17:29.267Z,74.11
2022-10-23T12:18:29.229Z,73.25
2022-10-23T12:19:29.208Z,74.42
2022-10-23T12:20:29.201Z,73.38
2022-10-23T12:21:29.210Z,72.98
2022-10-23T12:22:29.164Z,73.55
2022-10-23T12:23:29.145Z,72.40
2022-10-23T12:24:29.121Z,72.88
2022-10-23T12:25:29.110Z,73.77
2022-10-23T12:26:29.114Z,74.31
2022-10-23T12:27:29.048Z,73.13
2022-10-23T12:28:29.040Z,73.43
2022-10-23T12:29:29.006Z,72.85
2022-10-23T12:30:28.978Z,73.35
2022-10-23T12:31:28.954Z,72.77
2022-10-23T12:32:28.965Z,74.43
2022-10-23T12:33:28.917Z,73.15
2022-10-23T12:34:28.904Z,72.97
2022-10-23T12:35:28.897Z,72.53
2022-10-23T12:36:28.878Z,72.12
2022-10-23T12:37:28.836Z,72.69
2022-10-23T12:38:32.596Z,73.26
2022-10-23T12:39:30.813Z,73.77
2022-10-23T12:40:28.777Z,72.05
2022-10-23T12:41:28.754Z,74.33
2022-10-23T12:42:28.766Z,72.84
2022-10-23T12:43:28.749Z,73.23
2022-10-23T12:44:28.698Z,73.15
2022-10-23T12:45:28.709Z,73.44
2022-10-23T12:46:28.679Z,72.58
2022-10-23T12:47:28.750Z,71.77
2022-10-23T12:48:28.611Z,73.24
2022-10-23T12:49:28.599Z,73.69
2022-10-23T12:50:28.575Z,72.93
2022-10-23T12:51:28.556Z,71.38
2022-10-23T12:52:28.579Z,72.23
2022-10-23T12:53:28.505Z,72.99
2022-10-23T12:54:28.488Z,73.41
2022-10-23T12:55:29.807Z,74.46
2022-10-23T12:56:30.577Z,75.09
2022-10-23T12:57:28.461Z,74.14